Time;durP1;ratioP1;P1;durP2;ratioP2;P2;SDS_P1;SDS_P2;PMS_P1;PMS_P2;Temp;Humidity;BMP_temperature;BMP_pressure;BME280_temperature;BME280_humidity;BME280_pressure;Samples;Min_cycle;Max_cycle;Signal;HPM_P1;HPM_P2
2021/12/07 00:00:44;;;;;;;8.00;5.30;;;;;;;18.70;42.47;100651.16;5076064;28;20041;-82
2021/12/07 00:03:12;;;;;;;9.73;5.97;;;;;;;18.71;42.35;100652.84;5075311;28;20044;-83
2021/12/07 00:05:40;;;;;;;8.15;5.75;;;;;;;18.72;42.38;100654.56;5076199;28;20479;-82
2021/12/07 00:08:07;;;;;;;7.47;5.47;;;;;;;18.73;42.23;100650.91;5075930;28;20048;-83
2021/12/07 00:10:37;;;;;;;6.57;5.43;;;;;;;18.74;42.51;100652.59;5073924;28;20499;-83
2021/12/07 00:13:05;;;;;;;7.30;5.70;;;;;;;18.74;42.32;100655.25;5075427;28;20044;-83
2021/12/07 00:15:34;;;;;;;6.93;5.43;;;;;;;18.75;42.44;100651.59;5075964;28;20048;-82
2021/12/07 00:18:01;;;;;;;7.93;5.50;;;;;;;18.74;42.35;100647.22;5075420;28;20488;-82
2021/12/07 00:20:29;;;;;;;7.95;5.38;;;;;;;18.76;42.36;100639.06;5075664;28;20048;-83
2021/12/07 00:23:00;;;;;;;5.75;4.88;;;;;;;18.77;42.31;100638.91;5075317;28;20044;-82
2021/12/07 00:25:27;;;;;;;7.18;5.38;;;;;;;18.78;42.35;100637.94;5075837;28;20041;-83
2021/12/07 00:27:55;;;;;;;7.53;5.13;;;;;;;18.77;42.00;100649.66;5075274;28;20510;-82
2021/12/07 00:30:28;;;;;;;7.47;5.25;;;;;;;18.78;42.25;100642.44;5075492;28;20040;-83
2021/12/07 00:35:36;;;;;;;6.65;4.90;;;;;;;18.81;42.12;100638.66;5074468;28;20063;-82
2021/12/07 00:38:12;;;;;;;6.93;5.45;;;;;;;18.79;41.85;100628.03;5074907;28;20052;-82
2021/12/07 00:40:41;;;;;;;6.55;5.07;;;;;;;18.81;42.08;100627.94;5075726;28;20052;-82
2021/12/07 00:43:10;;;;;;;9.35;5.20;;;;;;;18.78;42.07;100624.53;5074940;28;20048;-82
2021/12/07 00:45:41;;;;;;;5.93;5.05;;;;;;;18.80;42.00;100636.94;5075394;28;20049;-82
2021/12/07 00:48:08;;;;;;;6.55;5.18;;;;;;;18.80;42.04;100639.63;5073712;28;20052;-82
2021/12/07 00:50:38;;;;;;;5.88;4.65;;;;;;;18.80;41.88;100653.03;5073051;28;20056;-82
2021/12/07 00:53:06;;;;;;;7.60;5.25;;;;;;;18.80;42.02;100645.84;5075362;28;20048;-82
2021/12/07 00:55:42;;;;;;;6.32;4.53;;;;;;;18.81;41.89;100657.44;5074650;28;20053;-82
2021/12/07 00:58:17;;;;;;;5.88;4.70;;;;;;;18.81;41.82;100650.22;5057137;28;20052;-82
2021/12/07 01:00:48;;;;;;;6.63;5.18;;;;;;;18.80;41.77;100634.25;5072925;28;20514;-82
2021/12/07 01:03:17;;;;;;;5.25;4.40;;;;;;;18.80;41.85;100637.81;5073957;28;20052;-82
2021/12/07 01:05:50;;;;;;;5.65;4.75;;;;;;;18.80;41.79;100639.63;5074539;28;20055;-82
2021/12/07 01:08:48;;;;;;;6.55;4.70;;;;;;;18.80;41.64;100628.88;5073305;28;20055;-82
2021/12/07 01:25:00;;;;;;;6.53;4.78;;;;;;;18.76;41.49;100621.13;5073024;28;20040;-82
2021/12/07 01:27:28;;;;;;;6.45;5.10;;;;;;;18.76;41.59;100614.94;5074031;28;20051;-81
2021/12/07 01:33:23;;;;;;;5.68;4.60;;;;;;;18.74;41.58;100604.31;5051983;28;20057;-81
2021/12/07 02:00:07;;;;;;;5.72;4.00;;;;;;;18.68;41.33;100623.59;5011940;28;20045;-76
2021/12/07 02:02:40;;;;;;;5.18;3.95;;;;;;;18.68;41.40;100631.66;5014156;28;20054;-76
2021/12/07 02:05:10;;;;;;;4.45;3.58;;;;;;;18.68;41.47;100634.31;4994793;28;20175;-77
2021/12/07 02:07:38;;;;;;;4.25;3.63;;;;;;;18.67;41.59;100634.44;5012552;28;20053;-77
2021/12/07 02:10:13;;;;;;;6.18;4.00;;;;;;;18.66;41.36;100630.91;5014505;28;20053;-77
2021/12/07 02:12:43;;;;;;;4.82;3.95;;;;;;;18.67;41.04;100624.56;5014199;28;20068;-77
2021/12/07 02:15:19;;;;;;;5.18;4.30;;;;;;;18.67;41.03;100618.34;5014397;28;20053;-77
2021/12/07 02:17:47;;;;;;;5.43;3.88;;;;;;;18.66;41.05;100617.50;5031704;28;20069;-77
2021/12/07 02:20:16;;;;;;;5.15;3.95;;;;;;;18.66;41.13;100614.81;5014903;28;20049;-77
2021/12/07 02:22:43;;;;;;;4.60;4.13;;;;;;;18.67;40.91;100613.00;5031555;28;20124;-77
2021/12/07 02:25:16;;;;;;;4.43;3.63;;;;;;;18.66;41.01;100617.50;5049626;28;20041;-77
2021/12/07 02:27:46;;;;;;;4.45;3.85;;;;;;;18.66;41.09;100614.81;5074049;28;20051;-76
2021/12/07 02:30:17;;;;;;;6.18;3.72;;;;;;;18.65;40.88;100623.84;5071549;28;20048;-76
2021/12/07 02:32:45;;;;;;;5.10;4.10;;;;;;;18.66;40.94;100627.38;5071842;28;20052;-76
2021/12/07 02:35:22;;;;;;;5.57;3.85;;;;;;;18.65;41.15;100639.94;5071527;28;20044;-76
2021/12/07 02:37:54;;;;;;;5.00;3.88;;;;;;;18.66;41.02;100643.47;5071733;28;20415;-76
2021/12/07 02:40:23;;;;;;;5.82;4.18;;;;;;;18.66;41.03;100643.47;5071633;28;20064;-76
2021/12/07 02:42:51;;;;;;;4.72;3.85;;;;;;;18.64;40.82;100638.25;5073344;28;20059;-76
2021/12/07 02:45:21;;;;;;;4.65;3.60;;;;;;;18.65;40.90;100633.75;5071433;28;20404;-76
2021/12/07 02:47:49;;;;;;;5.78;4.30;;;;;;;18.64;40.86;100630.22;5071689;28;20049;-76
2021/12/07 02:50:19;;;;;;;3.95;3.53;;;;;;;18.63;40.85;100630.31;5071783;28;20052;-76
2021/12/07 02:52:47;;;;;;;4.60;4.13;;;;;;;18.63;40.74;100636.53;5071601;28;20056;-77
2021/12/07 02:55:15;;;;;;;5.00;3.80;;;;;;;18.63;40.91;100633.00;5071398;28;20060;-77
2021/12/07 02:57:44;;;;;;;5.28;3.75;;;;;;;18.63;40.86;100630.31;5072966;28;20072;-77
2021/12/07 03:00:18;;;;;;;4.85;4.03;;;;;;;18.61;40.78;100635.84;5071829;28;20060;-76
2021/12/07 03:03:00;;;;;;;5.32;4.15;;;;;;;18.62;40.98;100626.78;5072877;28;20048;-76
2021/12/07 03:27:37;;;;;;;4.78;3.58;;;;;;;18.60;40.92;100636.81;5054175;28;20053;-77
2021/12/07 03:30:07;;;;;;;;;;;;;;;18.59;40.80;100637.78;5037852;28;20049;-76
2021/12/07 03:32:38;;;;;;;4.28;3.60;;;;;;;18.59;40.73;100643.13;5037458;28;20036;-77
2021/12/07 03:35:07;;;;;;;4.82;3.92;;;;;;;18.59;40.70;100639.63;5054403;28;20475;-77
2021/12/07 03:37:34;;;;;;;4.30;3.63;;;;;;;18.58;40.76;100636.09;5037486;28;20452;-77
2021/12/07 03:40:03;;;;;;;4.65;3.47;;;;;;;18.58;40.88;100637.91;5054813;28;20057;-77
2021/12/07 03:42:30;;;;;;;3.95;3.15;;;;;;;18.58;40.92;100645.97;5037215;28;20049;-77
2021/12/07 03:44:58;;;;;;;5.45;3.97;;;;;;;18.57;40.74;100639.75;5054331;28;20079;-76
2021/12/07 03:47:25;;;;;;;4.47;3.60;;;;;;;18.57;40.76;100633.53;5053798;28;20059;-76
2021/12/07 03:49:53;;;;;;;4.45;3.03;;;;;;;18.57;40.71;100634.41;5058849;28;20067;-76
2021/12/07 03:52:20;;;;;;;5.55;3.83;;;;;;;18.57;40.81;100625.50;5074278;28;20048;-76
2021/12/07 03:54:49;;;;;;;4.20;3.58;;;;;;;18.56;40.88;100616.63;5074019;28;20056;-76
2021/12/07 03:57:16;;;;;;;5.95;3.72;;;;;;;18.56;40.81;100623.81;5074267;28;20063;-76
2021/12/07 03:59:46;;;;;;;4.85;3.70;;;;;;;18.56;40.76;100631.84;5074434;28;20052;-76
2021/12/07 04:02:14;;;;;;;4.20;3.25;;;;;;;18.54;40.61;100631.97;5074158;28;20045;-76
2021/12/07 04:04:42;;;;;;;4.47;3.42;;;;;;;18.55;40.79;100630.97;5076569;28;20048;-76
2021/12/07 04:07:09;;;;;;;3.88;3.47;;;;;;;18.54;40.50;100629.28;5057575;28;20526;-76
2021/12/07 04:09:37;;;;;;;4.65;3.28;;;;;;;18.53;40.77;100641.84;5074587;28;20060;-76
2021/12/07 04:12:05;;;;;;;6.35;3.60;;;;;;;18.53;40.56;100641.84;5075679;28;20408;-76
2021/12/07 04:14:38;;;;;;;;;;;;;;;18.53;40.78;100643.69;5076445;28;20055;-76
2021/12/07 04:17:05;;;;;;;5.18;3.67;;;;;;;18.52;40.61;100648.19;5073841;28;19920;-76
2021/12/07 04:19:33;;;;;;;4.53;3.00;;;;;;;18.51;40.68;100646.50;5074079;28;20048;-76
2021/12/07 04:22:01;;;;;;;4.57;3.13;;;;;;;18.51;40.73;100657.22;5073704;28;20052;-76
2021/12/07 04:24:28;;;;;;;5.35;3.33;;;;;;;18.51;40.74;100656.34;5075406;28;20050;-76
2021/12/07 04:26:55;;;;;;;4.55;3.00;;;;;;;18.49;40.51;100656.50;5076022;28;20052;-76
2021/12/07 04:29:23;;;;;;;4.47;3.17;;;;;;;18.50;40.71;100651.97;5075217;28;20384;-76
2021/12/07 04:31:50;;;;;;;4.18;3.00;;;;;;;18.48;40.75;100645.91;5075787;28;20045;-76
2021/12/07 04:34:18;;;;;;;4.40;2.72;;;;;;;18.49;40.46;100645.78;5074766;28;20048;-76
2021/12/07 04:36:45;;;;;;;4.18;3.10;;;;;;;18.48;40.44;100654.78;5075402;28;20040;-76
2021/12/07 04:39:13;;;;;;;4.15;3.40;;;;;;;18.50;40.29;100668.06;5075346;28;20040;-76
2021/12/07 04:41:43;;;;;;;4.43;2.95;;;;;;;18.49;40.45;100669.06;5074944;28;20055;-76
2021/12/07 04:44:11;;;;;;;4.53;3.13;;;;;;;18.50;40.46;100676.09;5075378;28;20045;-76
2021/12/07 04:46:53;;;;;;;5.18;3.40;;;;;;;18.50;40.37;100682.31;5075691;28;20357;-76
2021/12/07 04:57:45;;;;;;;5.47;3.22;;;;;;;18.51;40.42;100720.69;5073062;28;20055;-76
2021/12/07 05:00:25;;;;;;;3.97;3.10;;;;;;;18.50;40.30;100730.56;5073473;28;20049;-76
2021/12/07 05:03:03;;;;;;;3.40;2.70;;;;;;;18.50;40.28;100737.75;5073076;28;20064;-76
2021/12/07 05:05:36;;;;;;;2.97;2.58;;;;;;;18.50;40.20;100737.75;5073054;28;20531;-76
2021/12/07 05:08:08;;;;;;;3.45;2.88;;;;;;;18.50;40.46;100735.06;5073141;28;20416;-76
2021/12/07 05:24:23;;;;;;;3.40;2.63;;;;;;;18.47;40.47;100728.16;5072723;28;20052;-76
2021/12/07 05:37:55;;;;;;;3.63;2.58;;;;;;;18.45;40.53;100718.53;5074443;28;20395;-76
2021/12/07 05:40:29;;;;;;;4.32;2.55;;;;;;;18.43;40.50;100713.31;5074293;28;20480;-77
2021/12/07 05:42:57;;;;;;;6.35;2.88;;;;;;;18.43;40.39;100715.13;5074735;28;20054;-77
2021/12/07 05:45:31;;;;;;;3.70;2.63;;;;;;;18.42;40.48;100703.56;5074055;28;20051;-76
2021/12/07 05:48:02;;;;;;;;;;;;;;;18.41;40.47;100709.91;5075330;28;20053;-77
2021/12/07 05:50:32;;;;;;;2.60;2.40;;;;;;;18.39;40.43;100705.63;5074257;28;19931;-77
2021/12/07 05:53:00;;;;;;;3.65;2.80;;;;;;;18.39;40.67;100722.59;5073582;28;20048;-77
2021/12/07 05:55:28;;;;;;;3.28;2.60;;;;;;;18.38;40.69;100728.06;5073657;28;20049;-77
2021/12/07 05:57:55;;;;;;;4.05;2.42;;;;;;;18.38;40.78;100726.22;5073503;28;20049;-77
2021/12/07 06:00:29;;;;;;;4.68;2.92;;;;;;;18.37;40.83;100713.81;5073898;28;20048;-77
2021/12/07 06:03:08;;;;;;;3.38;2.47;;;;;;;18.37;40.76;100710.28;5074266;28;20045;-77
2021/12/07 06:05:38;;;;;;;4.15;2.63;;;;;;;18.36;40.46;100719.31;5073876;28;20045;-77
2021/12/07 06:08:06;;;;;;;4.18;2.63;;;;;;;18.35;40.77;100721.16;5072109;28;20115;-77
2021/12/07 06:10:34;;;;;;;3.30;2.33;;;;;;;18.36;40.76;100727.34;5073241;28;20048;-77
2021/12/07 06:13:03;;;;;;;7.18;2.55;;;;;;;18.35;40.74;100720.28;5073318;28;20044;-77
2021/12/07 06:15:33;;;;;;;4.38;2.55;;;;;;;18.34;40.79;100722.09;5072258;28;20044;-77
2021/12/07 06:18:01;;;;;;;5.13;2.47;;;;;;;18.34;40.76;100713.22;5074053;28;20146;-77
2021/12/07 06:20:29;;;;;;;3.17;2.45;;;;;;;18.33;41.08;100717.72;5073368;28;20044;-77
2021/12/07 06:23:16;;;;;;;3.65;2.75;;;;;;;18.33;40.76;100733.81;5071987;28;20063;-76
2021/12/07 06:25:44;;;;;;;3.28;2.17;;;;;;;18.33;40.99;100733.81;5073639;28;20055;-77
2021/12/07 06:28:12;;;;;;;5.25;2.58;;;;;;;18.32;41.02;100731.28;5073695;28;20048;-77
2021/12/07 06:30:43;;;;;;;4.57;2.47;;;;;;;18.33;40.99;100738.31;5072844;28;20048;-77
2021/12/07 06:33:12;;;;;;;5.47;2.38;;;;;;;18.31;41.09;100730.44;5073038;28;20071;-78
2021/12/07 06:35:40;;;;;;;2.80;2.22;;;;;;;18.31;40.90;100729.53;5055355;28;20504;-78
2021/12/07 06:38:08;;;;;;;4.93;2.05;;;;;;;18.30;40.83;100734.06;5073375;28;20049;-78
2021/12/07 06:40:35;;;;;;;9.80;3.22;;;;;;;18.30;40.90;100739.41;5073142;28;20114;-78
2021/12/07 06:43:03;;;;;;;3.63;2.22;;;;;;;18.31;40.81;100737.59;5073869;28;20051;-78
2021/12/07 06:45:31;;;;;;;3.40;2.13;;;;;;;18.29;40.68;100737.72;5073018;28;20055;-78
2021/12/07 06:47:59;;;;;;;3.80;2.65;;;;;;;18.28;40.81;100736.88;5071675;28;20057;-77
2021/12/07 06:50:27;;;;;;;3.95;2.45;;;;;;;18.28;40.68;100741.38;5072998;28;20040;-77
2021/12/07 06:52:55;;;;;;;4.20;2.40;;;;;;;18.28;40.60;100752.97;5073422;28;20048;-77
2021/12/07 06:55:22;;;;;;;4.32;2.50;;;;;;;18.28;40.51;100752.97;5071842;28;20055;-77
2021/12/07 06:57:52;;;;;;;3.22;2.38;;;;;;;18.28;40.58;100779.75;5074372;28;20048;-77
2021/12/07 07:00:20;;;;;;;3.88;2.33;;;;;;;18.28;40.21;100766.34;5077436;28;20048;-77
2021/12/07 07:02:48;;;;;;;6.25;2.20;;;;;;;18.29;40.28;100775.25;5077653;28;20052;-76
2021/12/07 07:05:17;;;;;;;3.75;2.50;;;;;;;18.29;40.27;100768.06;5059845;28;20056;-76
2021/12/07 07:07:44;;;;;;;3.97;2.00;;;;;;;18.28;40.39;100755.63;5075001;28;20060;-76
2021/12/07 07:10:15;;;;;;;4.93;2.35;;;;;;;18.29;40.17;100761.84;5077767;28;20384;-77
2021/12/07 07:12:44;;;;;;;4.55;2.67;;;;;;;18.29;40.20;100764.53;5077490;28;20048;-77
2021/12/07 07:15:13;;;;;;;5.18;2.47;;;;;;;18.28;40.25;100766.34;5077453;28;20067;-77
2021/12/07 07:17:42;;;;;;;4.63;2.50;;;;;;;18.30;40.21;100768.91;5076509;28;20048;-76
2021/12/07 07:20:14;;;;;;;3.58;2.67;;;;;;;18.29;40.25;100778.78;5077285;28;20047;-76
2021/12/07 07:22:42;;;;;;;4.43;2.35;;;;;;;18.28;40.29;100776.22;5075074;28;20056;-77
2021/12/07 07:25:10;;;;;;;3.83;2.53;;;;;;;18.29;40.38;100794.00;5076971;28;20044;-77
2021/12/07 07:27:39;;;;;;;4.25;2.75;;;;;;;18.27;40.40;100795.94;5076390;28;20047;-77
2021/12/07 07:30:10;;;;;;;3.67;2.40;;;;;;;18.27;40.30;100807.53;5077096;28;20048;-77
2021/12/07 07:32:38;;;;;;;3.13;2.40;;;;;;;18.27;40.36;100809.34;5077119;28;20059;-77
2021/12/07 07:35:07;;;;;;;3.58;2.70;;;;;;;18.26;40.40;100813.00;5076298;28;20044;-77
2021/12/07 07:37:35;;;;;;;8.43;2.40;;;;;;;18.25;40.55;100817.50;5074709;28;20059;-76
2021/12/07 07:40:10;;;;;;;3.70;2.65;;;;;;;18.25;40.49;100814.84;5075281;28;20052;-76
2021/12/07 07:42:40;;;;;;;6.05;2.90;;;;;;;18.26;40.56;100810.31;5075393;28;20075;-77
2021/12/07 07:45:26;;;;;;;4.38;2.53;;;;;;;18.26;41.23;100813.00;5083435;28;20051;-76
2021/12/07 07:47:54;;;;;;;5.20;3.08;;;;;;;18.24;41.73;100814.97;5076302;28;20036;-76
2021/12/07 07:50:22;;;;;;;4.07;2.97;;;;;;;18.23;41.86;100814.13;5076430;28;20051;-76
2021/12/07 07:52:50;;;;;;;5.82;3.17;;;;;;;18.22;41.81;100817.75;5075861;28;20052;-76
2021/12/07 07:55:17;;;;;;;3.85;2.72;;;;;;;18.22;41.79;100823.13;5075848;28;20053;-76
2021/12/07 07:57:45;;;;;;;5.20;3.33;;;;;;;18.22;41.14;100825.78;5075738;28;20048;-77
2021/12/07 08:00:16;;;;;;;5.43;2.67;;;;;;;18.21;40.65;100832.13;5076441;28;20067;-76
2021/12/07 08:02:45;;;;;;;6.45;2.92;;;;;;;18.22;40.52;100838.34;5076506;28;20357;-81
2021/12/07 08:05:14;;;;;;;6.60;3.20;;;;;;;18.22;40.56;100843.72;5075569;28;20055;-77
2021/12/07 08:07:46;;;;;;;4.90;3.08;;;;;;;18.21;41.22;100848.22;5075169;28;20047;-77
2021/12/07 08:10:18;;;;;;;4.10;3.00;;;;;;;18.23;41.22;100843.59;5074575;28;20052;-77
2021/12/07 08:12:45;;;;;;;6.22;2.60;;;;;;;18.23;41.42;100854.31;5075119;28;20048;-77
2021/12/07 08:15:14;;;;;;;4.38;3.25;;;;;;;18.23;41.55;100838.25;5075685;28;20044;-77
2021/12/07 08:17:41;;;;;;;5.32;2.80;;;;;;;18.23;41.87;100848.97;5073893;28;20101;-76
2021/12/07 08:20:12;;;;;;;4.38;2.65;;;;;;;18.25;41.99;100844.31;5075767;28;20049;-78
2021/12/07 08:22:39;;;;;;;5.53;2.92;;;;;;;18.26;41.81;100850.53;5075979;28;20403;-77
2021/12/07 08:25:07;;;;;;;5.97;3.60;;;;;;;18.25;41.80;100849.66;5075901;28;20071;-76
2021/12/07 08:27:35;;;;;;;4.60;3.03;;;;;;;18.22;40.27;100849.91;5075347;28;20044;-76
2021/12/07 08:30:04;;;;;;;6.30;3.78;;;;;;;18.20;36.78;100845.69;5075442;28;20044;-76
2021/12/07 08:32:32;;;;;;;7.45;4.50;;;;;;;18.16;35.58;100839.72;5074080;28;20044;-77
2021/12/07 08:35:00;;;;;;;5.38;3.72;;;;;;;18.15;37.48;100848.72;5075215;28;20495;-77
2021/12/07 08:37:27;;;;;;;7.53;3.75;;;;;;;18.14;38.13;100855.03;5075352;28;20395;-76
2021/12/07 08:39:54;;;;;;;8.23;4.30;;;;;;;18.15;38.29;100861.25;5075321;28;20492;-77
2021/12/07 08:42:22;;;;;;;5.05;3.10;;;;;;;18.16;38.67;100858.47;5075149;28;20483;-77
2021/12/07 08:44:49;;;;;;;9.48;3.85;;;;;;;18.17;39.14;100853.94;5075464;28;20045;-78
2021/12/07 08:47:17;;;;;;;5.38;3.47;;;;;;;18.18;39.22;100845.78;5073833;28;20411;-78
2021/12/07 08:50:10;;;;;;;8.15;3.70;;;;;;;18.21;39.32;100858.09;5075096;28;20052;-77
2021/12/07 08:52:37;;;;;;;;;;;;;;;18.22;39.64;100863.31;5076391;28;20045;-77
2021/12/07 09:00:21;;;;;;;7.43;3.20;;;;;;;18.21;39.53;100872.34;5073592;28;20075;-76
2021/12/07 09:02:54;;;;;;;6.07;3.03;;;;;;;18.22;39.39;100879.38;5074455;28;20048;-77
2021/12/07 09:05:23;;;;;;;5.75;3.38;;;;;;;18.24;39.37;100884.66;5075041;28;20040;-77
2021/12/07 09:07:51;;;;;;;6.05;3.63;;;;;;;18.25;39.64;100880.97;5072561;28;20049;-77
2021/12/07 09:10:19;;;;;;;7.15;4.45;;;;;;;18.25;40.08;100875.63;5074612;28;20048;-77
2021/12/07 09:12:48;;;;;;;7.05;3.47;;;;;;;18.26;39.67;100885.34;5074786;28;20052;-77
2021/12/07 09:15:16;;;;;;;6.97;3.20;;;;;;;18.24;39.75;100884.66;5074400;28;20111;-77
2021/12/07 09:17:43;;;;;;;7.25;3.55;;;;;;;18.24;39.79;100880.13;5056707;28;20056;-77
2021/12/07 09:20:15;;;;;;;5.55;3.50;;;;;;;18.25;39.88;100884.50;5073427;28;20052;-77
2021/12/07 09:22:47;;;;;;;5.93;3.15;;;;;;;18.26;39.97;100882.69;5074171;28;20476;-76
2021/12/07 09:25:16;;;;;;;6.50;3.42;;;;;;;18.25;39.87;100887.19;5073189;28;20052;-77
2021/12/07 09:27:44;;;;;;;4.82;3.00;;;;;;;18.26;40.00;100888.88;5074586;28;20392;-77
2021/12/07 09:30:14;;;;;;;6.75;3.20;;;;;;;18.27;39.93;100895.97;5074498;28;20044;-77
2021/12/07 09:32:42;;;;;;;7.45;3.30;;;;;;;18.26;40.04;100899.59;5074040;28;20055;-77
2021/12/07 09:35:11;;;;;;;4.88;3.47;;;;;;;18.26;40.18;100898.75;5073979;28;20067;-77
2021/12/07 09:37:39;;;;;;;6.18;3.25;;;;;;;18.28;40.16;100902.19;5073587;28;20483;-77
2021/12/07 09:40:11;;;;;;;8.95;3.90;;;;;;;18.29;40.08;100907.41;5074287;28;20063;-77
2021/12/07 09:42:39;;;;;;;5.13;3.30;;;;;;;18.30;40.18;100905.56;5074424;28;20052;-77
2021/12/07 09:45:10;;;;;;;4.85;3.30;;;;;;;18.31;40.30;100901.06;5074488;28;20045;-76
2021/12/07 09:47:39;;;;;;;3.78;2.90;;;;;;;18.31;40.51;100891.22;5074117;28;20052;-77
2021/12/07 09:50:17;;;;;;;7.55;3.40;;;;;;;18.31;40.24;100898.38;5056679;28;20049;-77
2021/12/07 09:52:45;;;;;;;6.10;3.83;;;;;;;18.31;40.33;100893.03;5074155;28;20396;-77
2021/12/07 09:55:13;;;;;;;5.32;3.45;;;;;;;18.32;40.25;100892.06;5073761;28;20067;-77
2021/12/07 09:57:42;;;;;;;9.48;3.70;;;;;;;18.32;40.30;100886.72;5072360;28;20052;-83
2021/12/07 10:00:18;;;;;;;6.68;3.40;;;;;;;18.33;40.33;100877.69;5072436;28;20044;-83
2021/12/07 10:02:48;;;;;;;;;;;;;;;18.36;40.57;100888.16;5075422;28;20056;-83
2021/12/07 10:05:18;;;;;;;4.93;3.17;;;;;;;18.38;40.70;100889.72;5073591;28;19920;-86
2021/12/07 10:07:50;;;;;;;5.72;3.83;;;;;;;18.39;40.82;100878.06;5074169;28;20047;-84
2021/12/07 10:10:25;;;;;;;7.97;3.42;;;;;;;18.44;40.49;100893.75;5072935;28;20067;-84
2021/12/07 10:12:52;;;;;;;6.30;3.35;;;;;;;18.46;40.58;100873.88;5073263;28;20514;-84
2021/12/07 10:15:20;;;;;;;3.97;3.05;;;;;;;18.49;40.85;100886.19;5072863;28;20052;-85
2021/12/07 10:18:11;;;;;;;5.63;3.22;;;;;;;18.51;40.84;100894.94;5074571;28;20041;-84
2021/12/07 10:21:03;;;;;;;5.05;3.05;;;;;;;18.51;41.22;100894.94;5073460;28;20051;-85
2021/12/07 10:23:37;;;;;;;4.03;3.03;;;;;;;18.49;41.30;100884.34;5073153;28;20055;-83
2021/12/07 10:26:10;;;;;;;4.82;3.42;;;;;;;18.49;41.14;100891.53;5074814;28;20048;-85
2021/12/07 10:28:39;;;;;;;4.57;3.03;;;;;;;18.50;41.34;100893.25;5074521;28;20040;-84
2021/12/07 10:31:06;;;;;;;4.82;3.13;;;;;;;18.50;41.40;100886.03;5073564;28;20040;-86
2021/12/07 10:33:41;;;;;;;5.30;3.00;;;;;;;18.51;41.54;100874.38;5071088;28;20048;-83
2021/12/07 10:36:40;;;;;;;4.95;3.20;;;;;;;18.52;41.19;100872.53;5072418;28;20052;-83
2021/12/07 10:39:13;;;;;;;4.45;3.30;;;;;;;18.52;41.23;100867.19;5073204;28;20396;-81
2021/12/07 10:41:47;;;;;;;4.45;3.10;;;;;;;18.52;41.23;100867.19;5073594;28;20416;-83
2021/12/07 10:44:27;;;;;;;7.22;3.17;;;;;;;18.52;41.16;100864.50;5073892;28;20048;-83
2021/12/07 10:47:15;;;;;;;3.90;3.05;;;;;;;18.52;41.40;100865.34;5055660;28;20471;-82
2021/12/07 10:49:46;;;;;;;4.78;3.65;;;;;;;18.53;41.16;100864.34;5072156;28;20048;-83
2021/12/07 10:52:36;;;;;;;5.15;3.58;;;;;;;18.54;41.16;100860.69;5073545;28;20044;-82
2021/12/07 10:55:25;;;;;;;4.95;3.40;;;;;;;18.53;41.08;100863.50;5072793;28;20049;-84
2021/12/07 10:57:55;;;;;;;4.72;3.40;;;;;;;18.53;41.22;100866.19;5073385;28;20053;-83
2021/12/07 11:00:23;;;;;;;5.53;3.20;;;;;;;18.53;41.16;100858.16;5071704;28;20051;-83
2021/12/07 11:03:03;;;;;;;3.58;2.92;;;;;;;18.52;41.44;100849.25;5073834;28;20052;-77
2021/12/07 11:05:36;;;;;;;4.15;2.95;;;;;;;18.51;40.94;100844.88;5055004;28;20514;-78
2021/12/07 11:08:05;;;;;;;4.40;3.38;;;;;;;18.51;40.93;100838.63;5072821;28;20056;-77
2021/12/07 11:10:38;;;;;;;5.65;3.28;;;;;;;18.50;40.73;100832.44;5073682;28;20075;-78
2021/12/07 11:13:17;;;;;;;4.38;3.08;;;;;;;18.50;40.85;100832.44;5073333;28;20491;-77
2021/12/07 11:15:51;;;;;;;5.38;3.42;;;;;;;18.50;40.88;100820.88;5071760;28;20052;-77
2021/12/07 11:18:21;;;;;;;5.80;3.40;;;;;;;18.49;40.77;100819.16;5072640;28;20045;-77
2021/12/07 11:20:50;;;;;;;4.22;3.20;;;;;;;18.46;40.78;100822.94;5073271;28;20514;-77
2021/12/07 11:23:26;;;;;;;5.88;3.13;;;;;;;18.45;40.81;100831.97;5072719;28;20040;-77
2021/12/07 11:31:40;;;;;;;4.85;3.05;;;;;;;18.43;40.55;100836.63;5071165;28;20060;-77
2021/12/07 11:34:13;;;;;;;;;;;;;;;18.41;40.38;100825.16;5067636;28;20488;-77
2021/12/07 11:36:44;;;;;;;5.60;3.88;;;;;;;18.43;40.33;100825.03;5073211;28;19935;-77
2021/12/07 11:39:37;;;;;;;5.45;3.38;;;;;;;18.42;40.31;100834.03;5072858;28;20048;-77
2021/12/07 11:42:06;;;;;;;5.45;3.03;;;;;;;18.42;40.26;100826.00;5073032;28;20051;-79
2021/12/07 11:44:56;;;;;;;3.80;2.85;;;;;;;18.42;40.52;100815.28;5073664;28;20404;-77
2021/12/07 11:47:39;;;;;;;7.60;3.47;;;;;;;18.42;39.97;100804.56;5076150;28;20048;-77
2021/12/07 11:50:23;;;;;;;4.72;3.08;;;;;;;18.42;40.41;100810.75;5076667;28;20044;-77
2021/12/07 11:52:55;;;;;;;5.25;3.20;;;;;;;18.42;40.20;100808.09;5075514;28;20041;-77
2021/12/07 11:55:24;;;;;;;5.60;3.08;;;;;;;18.43;40.18;100795.53;5076099;28;20060;-77
2021/12/07 11:57:52;;;;;;;4.25;3.40;;;;;;;18.44;40.14;100786.53;5075771;28;20063;-77
2021/12/07 12:00:34;;;;;;;6.68;3.55;;;;;;;18.43;40.29;100777.66;5076236;28;20048;-77
2021/12/07 12:03:05;;;;;;;5.18;3.30;;;;;;;18.42;40.36;100783.97;5076173;28;20044;-77
2021/12/07 12:05:34;;;;;;;5.05;3.22;;;;;;;18.43;40.30;100803.56;5076209;28;20053;-77
2021/12/07 12:08:07;;;;;;;4.47;3.47;;;;;;;18.42;40.36;100789.31;5074119;28;20071;-78
2021/12/07 12:10:40;;;;;;;4.72;3.58;;;;;;;18.41;40.37;100784.94;5076123;28;20044;-76
2021/12/07 12:13:17;;;;;;;5.03;3.30;;;;;;;18.41;40.19;100793.00;5075653;28;20052;-77
2021/12/07 12:15:58;;;;;;;4.63;3.40;;;;;;;18.41;40.38;100787.63;5075808;28;20067;-77
2021/12/07 12:18:48;;;;;;;4.03;3.00;;;;;;;18.45;40.16;100785.56;5075415;28;20040;-77
2021/12/07 12:21:49;;;;;;;5.35;3.38;;;;;;;18.46;39.85;100785.41;5075732;28;20063;-77
2021/12/07 12:24:44;;;;;;;4.68;3.63;;;;;;;18.51;39.87;100793.94;5075255;28;20043;-77
2021/12/07 12:27:15;;;;;;;4.50;3.17;;;;;;;18.54;39.81;100790.13;5073149;28;20416;-79
2021/12/07 12:29:45;;;;;;;4.97;3.13;;;;;;;18.56;39.82;100795.41;5075791;28;20045;-78
2021/12/07 12:32:12;;;;;;;4.55;3.45;;;;;;;18.58;39.91;100796.09;5075562;28;20049;-76
2021/12/07 12:34:50;;;;;;;5.10;3.00;;;;;;;18.59;39.92;100795.97;5075175;28;20052;-79
2021/12/07 12:37:22;;;;;;;7.07;3.75;;;;;;;18.61;40.25;100782.44;5075773;28;20048;-76
2021/12/07 12:39:52;;;;;;;5.07;3.42;;;;;;;18.61;40.46;100785.13;5073398;28;20048;-76
2021/12/07 12:42:24;;;;;;;6.63;3.83;;;;;;;18.60;41.52;100789.66;5074735;28;20053;-77
2021/12/07 12:45:01;;;;;;;7.40;4.13;;;;;;;18.57;43.90;100784.53;5090013;28;20048;-76
2021/12/07 12:47:31;;;;;;;7.70;3.67;;;;;;;18.56;44.24;100788.19;5074750;28;20049;-76
2021/12/07 12:50:30;;;;;;;6.90;4.00;;;;;;;18.52;44.00;100787.59;5074684;28;20048;-76
2021/12/07 12:53:02;;;;;;;5.65;3.60;;;;;;;18.52;43.92;100786.75;5063281;28;20067;-76
2021/12/07 12:55:29;;;;;;;5.15;3.38;;;;;;;18.52;43.49;100787.59;5073884;28;20400;-76
2021/12/07 12:57:59;;;;;;;4.75;3.50;;;;;;;18.46;44.56;100788.09;5073242;28;20048;-76
2021/12/07 13:00:59;;;;;;;5.07;3.38;;;;;;;18.46;43.89;100796.13;5071849;28;20384;-76
2021/12/07 13:03:43;;;;;;;4.47;3.03;;;;;;;18.44;43.78;100792.75;5087934;28;20052;-78
2021/12/07 13:06:44;;;;;;;6.07;3.75;;;;;;;18.44;43.82;100792.75;5074280;28;20060;-76
2021/12/07 13:09:19;;;;;;;4.25;3.83;;;;;;;18.44;43.77;100791.91;5074203;28;20408;-76
2021/12/07 13:11:57;;;;;;;5.63;3.38;;;;;;;18.43;43.78;100787.50;5074100;28;20037;-76
2021/12/07 13:14:24;;;;;;;6.85;3.40;;;;;;;18.44;43.75;100783.84;5074177;28;20044;-76
2021/12/07 13:17:03;;;;;;;5.07;3.33;;;;;;;18.44;43.68;100791.91;5074202;28;20044;-75
2021/12/07 13:19:32;;;;;;;5.90;3.67;;;;;;;18.43;43.82;100795.53;5074254;28;20051;-76
2021/12/07 13:22:06;;;;;;;4.65;3.47;;;;;;;18.41;43.69;100784.94;5074029;28;20044;-75
2021/12/07 13:24:40;;;;;;;4.82;3.08;;;;;;;18.40;43.60;100791.28;5072424;28;20056;-75
2021/12/07 13:27:16;;;;;;;4.50;3.08;;;;;;;18.41;43.91;100773.38;5073953;28;20041;-75
2021/12/07 13:29:52;;;;;;;4.88;3.45;;;;;;;18.41;43.88;100776.06;5074033;28;20048;-75
2021/12/07 13:32:20;;;;;;;5.80;3.78;;;;;;;18.42;43.69;100764.34;5072730;28;20048;-75
2021/12/07 13:34:59;;;;;;;6.28;3.50;;;;;;;18.40;43.64;100761.81;5073643;28;20041;-75
2021/12/07 13:37:45;;;;;;;4.53;3.20;;;;;;;18.41;43.57;100765.34;5072358;28;20048;-76